sensor_id;sensor_type;location;lat;lon;timestamp;P1;durP1;ratioP1;P2;durP2;ratioP2
16147;SDS011;8179;59.364;18.018;2022-10-16T00:00:39;39.28;;;36.38;;
16147;SDS011;8179;59.364;18.018;2022-10-16T00:03:06;34.45;;;31.35;;
16147;SDS011;8179;59.364;18.018;2022-10-16T00:05:37;29.73;;;27.08;;
16147;SDS011;8179;59.364;18.018;2022-10-16T00:08:04;33.00;;;30.33;;
16147;SDS011;8179;59.364;18.018;2022-10-16T00:10:30;37.78;;;34.75;;
16147;SDS011;8179;59.364;18.018;2022-10-16T00:12:57;33.55;;;30.48;;
16147;SDS011;8179;59.364;18.018;2022-10-16T00:15:23;38.47;;;35.15;;
16147;SDS011;8179;59.364;18.018;2022-10-16T00:17:50;36.55;;;33.50;;
16147;SDS011;8179;59.364;18.018;2022-10-16T00:20:16;45.30;;;42.10;;
16147;SDS011;8179;59.364;18.018;2022-10-16T00:22:44;38.75;;;35.85;;
16147;SDS011;8179;59.364;18.018;2022-10-16T00:25:10;50.15;;;47.13;;
16147;SDS011;8179;59.364;18.018;2022-10-16T00:27:37;29.27;;;26.85;;
16147;SDS011;8179;59.364;18.018;2022-10-16T00:30:04;68.13;;;64.78;;
16147;SDS011;8179;59.364;18.018;2022-10-16T00:32:30;46.80;;;43.50;;
16147;SDS011;8179;59.364;18.018;2022-10-16T00:34:57;34.13;;;31.40;;
16147;SDS011;8179;59.364;18.018;2022-10-16T00:37:23;31.73;;;28.88;;
16147;SDS011;8179;59.364;18.018;2022-10-16T00:39:51;34.20;;;31.38;;
16147;SDS011;8179;59.364;18.018;2022-10-16T00:42:18;37.47;;;34.17;;
16147;SDS011;8179;59.364;18.018;2022-10-16T00:44:46;29.15;;;26.75;;
16147;SDS011;8179;59.364;18.018;2022-10-16T00:47:16;28.80;;;26.55;;
16147;SDS011;8179;59.364;18.018;2022-10-16T00:49:44;50.25;;;47.10;;
16147;SDS011;8179;59.364;18.018;2022-10-16T00:52:10;30.13;;;27.83;;
16147;SDS011;8179;59.364;18.018;2022-10-16T00:54:38;33.47;;;30.80;;
16147;SDS011;8179;59.364;18.018;2022-10-16T00:57:06;42.92;;;40.30;;
16147;SDS011;8179;59.364;18.018;2022-10-16T00:59:33;82.93;;;79.03;;
16147;SDS011;8179;59.364;18.018;2022-10-16T01:02:00;37.47;;;34.97;;
16147;SDS011;8179;59.364;18.018;2022-10-16T01:04:28;31.95;;;29.50;;
16147;SDS011;8179;59.364;18.018;2022-10-16T01:06:58;42.63;;;40.08;;
16147;SDS011;8179;59.364;18.018;2022-10-16T01:09:30;38.83;;;36.20;;
16147;SDS011;8179;59.364;18.018;2022-10-16T01:12:01;43.33;;;40.47;;
16147;SDS011;8179;59.364;18.018;2022-10-16T01:14:35;33.50;;;30.67;;
16147;SDS011;8179;59.364;18.018;2022-10-16T01:17:04;51.63;;;48.35;;
16147;SDS011;8179;59.364;18.018;2022-10-16T01:19:46;38.97;;;36.25;;
16147;SDS011;8179;59.364;18.018;2022-10-16T01:22:14;42.92;;;40.03;;
16147;SDS011;8179;59.364;18.018;2022-10-16T01:24:43;39.22;;;36.80;;
16147;SDS011;8179;59.364;18.018;2022-10-16T01:27:12;69.60;;;65.90;;
16147;SDS011;8179;59.364;18.018;2022-10-16T01:29:41;35.20;;;32.13;;
16147;SDS011;8179;59.364;18.018;2022-10-16T01:32:11;41.40;;;38.70;;
16147;SDS011;8179;59.364;18.018;2022-10-16T01:34:42;52.85;;;49.75;;
16147;SDS011;8179;59.364;18.018;2022-10-16T01:37:12;55.40;;;52.42;;
16147;SDS011;8179;59.364;18.018;2022-10-16T01:39:39;50.03;;;46.90;;
16147;SDS011;8179;59.364;18.018;2022-10-16T01:42:08;55.63;;;52.58;;
16147;SDS011;8179;59.364;18.018;2022-10-16T01:44:38;34.65;;;31.88;;
16147;SDS011;8179;59.364;18.018;2022-10-16T01:47:05;38.60;;;36.20;;
16147;SDS011;8179;59.364;18.018;2022-10-16T01:49:34;39.45;;;36.72;;
16147;SDS011;8179;59.364;18.018;2022-10-16T01:52:02;40.92;;;38.33;;
16147;SDS011;8179;59.364;18.018;2022-10-16T01:54:30;32.17;;;29.60;;
16147;SDS011;8179;59.364;18.018;2022-10-16T01:56:57;35.58;;;33.38;;
16147;SDS011;8179;59.364;18.018;2022-10-16T01:59:25;35.97;;;33.58;;
16147;SDS011;8179;59.364;18.018;2022-10-16T02:01:54;44.28;;;41.72;;
16147;SDS011;8179;59.364;18.018;2022-10-16T02:04:23;33.13;;;30.92;;
16147;SDS011;8179;59.364;18.018;2022-10-16T02:06:51;33.38;;;31.13;;
16147;SDS011;8179;59.364;18.018;2022-10-16T02:09:18;34.17;;;32.03;;
16147;SDS011;8179;59.364;18.018;2022-10-16T02:11:45;33.22;;;30.95;;
16147;SDS011;8179;59.364;18.018;2022-10-16T02:14:11;53.33;;;50.40;;
16147;SDS011;8179;59.364;18.018;2022-10-16T02:16:39;56.03;;;52.83;;
16147;SDS011;8179;59.364;18.018;2022-10-16T02:19:07;38.72;;;36.05;;
16147;SDS011;8179;59.364;18.018;2022-10-16T02:21:35;31.55;;;29.20;;
16147;SDS011;8179;59.364;18.018;2022-10-16T02:24:06;33.05;;;30.63;;
16147;SDS011;8179;59.364;18.018;2022-10-16T02:26:35;35.90;;;33.72;;
16147;SDS011;8179;59.364;18.018;2022-10-16T02:29:02;33.03;;;30.48;;
16147;SDS011;8179;59.364;18.018;2022-10-16T02:31:32;32.40;;;30.10;;
16147;SDS011;8179;59.364;18.018;2022-10-16T02:34:00;56.22;;;53.08;;
16147;SDS011;8179;59.364;18.018;2022-10-16T02:36:29;37.05;;;34.25;;
16147;SDS011;8179;59.364;18.018;2022-10-16T02:38:55;33.13;;;30.63;;
16147;SDS011;8179;59.364;18.018;2022-10-16T02:41:22;51.42;;;48.60;;
16147;SDS011;8179;59.364;18.018;2022-10-16T02:43:49;36.00;;;33.58;;
16147;SDS011;8179;59.364;18.018;2022-10-16T02:46:16;44.25;;;41.17;;
16147;SDS011;8179;59.364;18.018;2022-10-16T02:48:43;38.33;;;36.00;;
16147;SDS011;8179;59.364;18.018;2022-10-16T02:51:09;37.67;;;35.42;;
16147;SDS011;8179;59.364;18.018;2022-10-16T02:53:37;31.88;;;29.30;;
16147;SDS011;8179;59.364;18.018;2022-10-16T02:56:04;45.72;;;42.90;;
16147;SDS011;8179;59.364;18.018;2022-10-16T02:58:30;36.35;;;34.15;;
16147;SDS011;8179;59.364;18.018;2022-10-16T03:00:57;33.03;;;30.42;;
16147;SDS011;8179;59.364;18.018;2022-10-16T03:03:23;44.15;;;41.63;;
16147;SDS011;8179;59.364;18.018;2022-10-16T03:05:50;34.38;;;31.90;;
16147;SDS011;8179;59.364;18.018;2022-10-16T03:08:16;60.67;;;57.67;;
16147;SDS011;8179;59.364;18.018;2022-10-16T03:10:49;36.53;;;34.25;;
16147;SDS011;8179;59.364;18.018;2022-10-16T03:13:16;31.98;;;29.83;;
16147;SDS011;8179;59.364;18.018;2022-10-16T03:15:43;32.00;;;29.90;;
16147;SDS011;8179;59.364;18.018;2022-10-16T03:18:09;42.65;;;40.35;;
16147;SDS011;8179;59.364;18.018;2022-10-16T03:20:36;29.50;;;27.30;;
16147;SDS011;8179;59.364;18.018;2022-10-16T03:23:02;41.95;;;38.67;;
16147;SDS011;8179;59.364;18.018;2022-10-16T03:25:29;40.53;;;38.33;;
16147;SDS011;8179;59.364;18.018;2022-10-16T03:27:57;39.13;;;36.75;;
16147;SDS011;8179;59.364;18.018;2022-10-16T03:30:23;32.67;;;30.67;;
16147;SDS011;8179;59.364;18.018;2022-10-16T03:32:49;36.45;;;34.30;;
16147;SDS011;8179;59.364;18.018;2022-10-16T03:35:18;37.22;;;35.05;;
16147;SDS011;8179;59.364;18.018;2022-10-16T03:37:45;35.80;;;33.72;;
16147;SDS011;8179;59.364;18.018;2022-10-16T03:40:13;40.08;;;37.97;;
16147;SDS011;8179;59.364;18.018;2022-10-16T03:42:39;62.47;;;59.50;;
16147;SDS011;8179;59.364;18.018;2022-10-16T03:45:07;29.23;;;27.42;;
16147;SDS011;8179;59.364;18.018;2022-10-16T03:47:34;31.63;;;29.55;;
16147;SDS011;8179;59.364;18.018;2022-10-16T03:50:01;32.80;;;30.80;;
16147;SDS011;8179;59.364;18.018;2022-10-16T03:52:27;29.50;;;27.27;;
16147;SDS011;8179;59.364;18.018;2022-10-16T03:54:54;41.33;;;39.00;;
16147;SDS011;8179;59.364;18.018;2022-10-16T03:57:20;27.67;;;25.88;;
16147;SDS011;8179;59.364;18.018;2022-10-16T03:59:47;26.92;;;25.17;;
16147;SDS011;8179;59.364;18.018;2022-10-16T04:02:15;32.92;;;31.08;;
16147;SDS011;8179;59.364;18.018;2022-10-16T04:04:41;29.83;;;27.60;;
16147;SDS011;8179;59.364;18.018;2022-10-16T04:07:08;24.75;;;23.02;;
16147;SDS011;8179;59.364;18.018;2022-10-16T04:09:34;27.05;;;25.35;;
16147;SDS011;8179;59.364;18.018;2022-10-16T04:12:01;43.08;;;40.72;;
16147;SDS011;8179;59.364;18.018;2022-10-16T04:14:27;43.25;;;41.15;;
16147;SDS011;8179;59.364;18.018;2022-10-16T04:16:54;30.20;;;28.33;;
16147;SDS011;8179;59.364;18.018;2022-10-16T04:19:21;45.35;;;43.20;;
16147;SDS011;8179;59.364;18.018;2022-10-16T04:21:48;42.58;;;40.38;;
16147;SDS011;8179;59.364;18.018;2022-10-16T04:24:14;34.70;;;32.75;;
16147;SDS011;8179;59.364;18.018;2022-10-16T04:26:41;30.30;;;28.40;;
16147;SDS011;8179;59.364;18.018;2022-10-16T04:29:07;43.20;;;41.20;;
16147;SDS011;8179;59.364;18.018;2022-10-16T04:31:34;36.10;;;34.05;;
16147;SDS011;8179;59.364;18.018;2022-10-16T04:34:00;32.95;;;31.17;;
16147;SDS011;8179;59.364;18.018;2022-10-16T04:36:28;43.35;;;40.95;;
16147;SDS011;8179;59.364;18.018;2022-10-16T04:38:55;45.63;;;43.35;;
16147;SDS011;8179;59.364;18.018;2022-10-16T04:41:21;31.13;;;29.40;;
16147;SDS011;8179;59.364;18.018;2022-10-16T04:43:48;26.58;;;25.17;;
16147;SDS011;8179;59.364;18.018;2022-10-16T04:46:14;36.75;;;34.83;;
16147;SDS011;8179;59.364;18.018;2022-10-16T04:48:41;31.75;;;30.23;;
16147;SDS011;8179;59.364;18.018;2022-10-16T04:51:07;32.25;;;30.23;;
16147;SDS011;8179;59.364;18.018;2022-10-16T04:53:35;35.35;;;33.35;;
16147;SDS011;8179;59.364;18.018;2022-10-16T04:56:01;35.85;;;33.92;;
16147;SDS011;8179;59.364;18.018;2022-10-16T04:58:28;29.10;;;27.25;;
16147;SDS011;8179;59.364;18.018;2022-10-16T05:00:54;36.05;;;34.15;;
16147;SDS011;8179;59.364;18.018;2022-10-16T05:03:21;42.47;;;40.55;;
16147;SDS011;8179;59.364;18.018;2022-10-16T05:05:47;43.38;;;41.33;;
16147;SDS011;8179;59.364;18.018;2022-10-16T05:08:15;45.47;;;43.20;;
16147;SDS011;8179;59.364;18.018;2022-10-16T05:10:43;31.85;;;30.13;;
16147;SDS011;8179;59.364;18.018;2022-10-16T05:13:10;33.17;;;31.08;;
16147;SDS011;8179;59.364;18.018;2022-10-16T05:15:37;30.73;;;28.88;;
16147;SDS011;8179;59.364;18.018;2022-10-16T05:18:03;26.92;;;25.58;;
16147;SDS011;8179;59.364;18.018;2022-10-16T05:20:30;31.30;;;29.60;;
16147;SDS011;8179;59.364;18.018;2022-10-16T05:22:56;27.48;;;25.83;;
16147;SDS011;8179;59.364;18.018;2022-10-16T05:25:23;37.10;;;35.20;;
16147;SDS011;8179;59.364;18.018;2022-10-16T05:27:51;24.85;;;23.35;;
16147;SDS011;8179;59.364;18.018;2022-10-16T05:30:18;26.55;;;24.77;;
16147;SDS011;8179;59.364;18.018;2022-10-16T05:32:46;45.22;;;42.40;;
16147;SDS011;8179;59.364;18.018;2022-10-16T05:35:12;40.33;;;38.47;;
16147;SDS011;8179;59.364;18.018;2022-10-16T05:37:39;27.90;;;26.08;;
16147;SDS011;8179;59.364;18.018;2022-10-16T05:40:06;36.28;;;34.22;;
16147;SDS011;8179;59.364;18.018;2022-10-16T05:42:32;35.75;;;33.78;;
16147;SDS011;8179;59.364;18.018;2022-10-16T05:45:00;36.00;;;33.97;;
16147;SDS011;8179;59.364;18.018;2022-10-16T05:47:27;43.88;;;41.67;;
16147;SDS011;8179;59.364;18.018;2022-10-16T05:49:53;33.83;;;31.58;;
16147;SDS011;8179;59.364;18.018;2022-10-16T05:52:20;38.17;;;36.20;;
16147;SDS011;8179;59.364;18.018;2022-10-16T05:54:46;32.72;;;30.80;;
16147;SDS011;8179;59.364;18.018;2022-10-16T05:57:13;30.00;;;28.10;;
16147;SDS011;8179;59.364;18.018;2022-10-16T05:59:39;31.63;;;29.77;;
16147;SDS011;8179;59.364;18.018;2022-10-16T06:02:08;30.00;;;27.98;;
16147;SDS011;8179;59.364;18.018;2022-10-16T06:04:37;34.15;;;32.08;;
16147;SDS011;8179;59.364;18.018;2022-10-16T06:07:04;34.70;;;32.50;;
16147;SDS011;8179;59.364;18.018;2022-10-16T06:09:30;35.95;;;33.67;;
16147;SDS011;8179;59.364;18.018;2022-10-16T06:11:57;31.80;;;29.75;;
16147;SDS011;8179;59.364;18.018;2022-10-16T06:14:23;42.70;;;40.05;;
16147;SDS011;8179;59.364;18.018;2022-10-16T06:16:50;48.70;;;46.17;;
16147;SDS011;8179;59.364;18.018;2022-10-16T06:19:18;60.25;;;57.35;;
16147;SDS011;8179;59.364;18.018;2022-10-16T06:21:44;46.45;;;43.80;;
16147;SDS011;8179;59.364;18.018;2022-10-16T06:24:11;37.17;;;34.60;;
16147;SDS011;8179;59.364;18.018;2022-10-16T06:26:37;36.03;;;33.80;;
16147;SDS011;8179;59.364;18.018;2022-10-16T06:29:04;44.63;;;41.92;;
16147;SDS011;8179;59.364;18.018;2022-10-16T06:31:30;44.50;;;41.25;;
16147;SDS011;8179;59.364;18.018;2022-10-16T06:33:58;38.58;;;35.65;;
16147;SDS011;8179;59.364;18.018;2022-10-16T06:36:26;51.55;;;48.35;;
16147;SDS011;8179;59.364;18.018;2022-10-16T06:38:53;41.17;;;38.33;;
16147;SDS011;8179;59.364;18.018;2022-10-16T06:41:20;33.60;;;30.35;;
16147;SDS011;8179;59.364;18.018;2022-10-16T06:43:47;30.40;;;27.95;;
16147;SDS011;8179;59.364;18.018;2022-10-16T06:46:14;44.42;;;41.63;;
16147;SDS011;8179;59.364;18.018;2022-10-16T06:48:41;52.22;;;48.92;;
16147;SDS011;8179;59.364;18.018;2022-10-16T06:51:09;40.30;;;37.33;;
16147;SDS011;8179;59.364;18.018;2022-10-16T06:53:37;43.80;;;40.70;;
16147;SDS011;8179;59.364;18.018;2022-10-16T06:56:07;32.47;;;30.33;;
16147;SDS011;8179;59.364;18.018;2022-10-16T06:58:34;31.52;;;29.33;;
16147;SDS011;8179;59.364;18.018;2022-10-16T07:01:00;38.90;;;36.20;;
16147;SDS011;8179;59.364;18.018;2022-10-16T07:03:27;38.47;;;35.67;;
16147;SDS011;8179;59.364;18.018;2022-10-16T07:05:53;57.38;;;54.05;;
16147;SDS011;8179;59.364;18.018;2022-10-16T07:08:20;38.72;;;36.13;;
16147;SDS011;8179;59.364;18.018;2022-10-16T07:10:48;39.13;;;36.35;;
16147;SDS011;8179;59.364;18.018;2022-10-16T07:13:14;55.28;;;52.08;;
16147;SDS011;8179;59.364;18.018;2022-10-16T07:15:41;39.22;;;36.50;;
16147;SDS011;8179;59.364;18.018;2022-10-16T07:18:07;33.47;;;30.83;;
16147;SDS011;8179;59.364;18.018;2022-10-16T07:20:34;39.92;;;37.40;;
16147;SDS011;8179;59.364;18.018;2022-10-16T07:23:00;34.00;;;31.70;;
16147;SDS011;8179;59.364;18.018;2022-10-16T07:25:27;46.15;;;43.33;;
16147;SDS011;8179;59.364;18.018;2022-10-16T07:27:54;36.08;;;33.88;;
16147;SDS011;8179;59.364;18.018;2022-10-16T07:30:21;41.08;;;38.40;;
16147;SDS011;8179;59.364;18.018;2022-10-16T07:32:48;40.30;;;37.85;;
16147;SDS011;8179;59.364;18.018;2022-10-16T07:35:14;61.35;;;58.20;;
16147;SDS011;8179;59.364;18.018;2022-10-16T07:37:43;55.45;;;52.55;;
16147;SDS011;8179;59.364;18.018;2022-10-16T07:40:10;38.85;;;36.53;;
16147;SDS011;8179;59.364;18.018;2022-10-16T07:42:36;38.17;;;36.03;;
16147;SDS011;8179;59.364;18.018;2022-10-16T07:45:05;59.92;;;56.95;;
16147;SDS011;8179;59.364;18.018;2022-10-16T07:47:32;59.97;;;57.25;;
16147;SDS011;8179;59.364;18.018;2022-10-16T07:49:58;50.70;;;48.13;;
16147;SDS011;8179;59.364;18.018;2022-10-16T07:52:25;62.83;;;60.00;;
16147;SDS011;8179;59.364;18.018;2022-10-16T07:54:51;47.33;;;44.65;;
16147;SDS011;8179;59.364;18.018;2022-10-16T07:57:18;61.47;;;58.88;;
16147;SDS011;8179;59.364;18.018;2022-10-16T07:59:45;56.38;;;53.97;;
16147;SDS011;8179;59.364;18.018;2022-10-16T08:02:13;50.70;;;48.33;;
16147;SDS011;8179;59.364;18.018;2022-10-16T08:04:39;40.03;;;38.28;;
16147;SDS011;8179;59.364;18.018;2022-10-16T08:07:06;59.20;;;56.45;;
16147;SDS011;8179;59.364;18.018;2022-10-16T08:09:33;53.28;;;51.08;;
16147;SDS011;8179;59.364;18.018;2022-10-16T08:11:59;55.42;;;52.75;;
16147;SDS011;8179;59.364;18.018;2022-10-16T08:14:27;67.75;;;64.85;;
16147;SDS011;8179;59.364;18.018;2022-10-16T08:16:54;90.25;;;86.97;;
16147;SDS011;8179;59.364;18.018;2022-10-16T08:19:21;52.90;;;50.60;;
16147;SDS011;8179;59.364;18.018;2022-10-16T08:21:48;78.85;;;75.70;;
16147;SDS011;8179;59.364;18.018;2022-10-16T08:24:14;57.80;;;55.45;;
16147;SDS011;8179;59.364;18.018;2022-10-16T08:26:41;54.55;;;52.20;;
16147;SDS011;8179;59.364;18.018;2022-10-16T08:29:08;58.42;;;55.75;;
16147;SDS011;8179;59.364;18.018;2022-10-16T08:31:34;67.20;;;64.63;;
16147;SDS011;8179;59.364;18.018;2022-10-16T08:34:00;68.82;;;66.22;;
16147;SDS011;8179;59.364;18.018;2022-10-16T08:36:28;81.57;;;78.78;;
16147;SDS011;8179;59.364;18.018;2022-10-16T08:38:55;73.32;;;70.57;;
16147;SDS011;8179;59.364;18.018;2022-10-16T08:46:45;71.78;;;69.13;;
16147;SDS011;8179;59.364;18.018;2022-10-16T08:49:15;65.60;;;63.08;;
16147;SDS011;8179;59.364;18.018;2022-10-16T08:51:44;81.03;;;78.05;;
16147;SDS011;8179;59.364;18.018;2022-10-16T08:54:15;90.00;;;86.78;;
16147;SDS011;8179;59.364;18.018;2022-10-16T08:56:47;64.65;;;62.03;;
16147;SDS011;8179;59.364;18.018;2022-10-16T08:59:13;74.28;;;71.32;;
16147;SDS011;8179;59.364;18.018;2022-10-16T09:01:40;73.57;;;70.80;;
16147;SDS011;8179;59.364;18.018;2022-10-16T09:04:15;82.47;;;79.13;;
16147;SDS011;8179;59.364;18.018;2022-10-16T09:06:48;71.38;;;68.72;;
16147;SDS011;8179;59.364;18.018;2022-10-16T09:09:20;91.30;;;87.95;;
16147;SDS011;8179;59.364;18.018;2022-10-16T09:11:48;69.70;;;67.28;;
16147;SDS011;8179;59.364;18.018;2022-10-16T09:14:23;92.60;;;89.30;;
16147;SDS011;8179;59.364;18.018;2022-10-16T09:17:03;73.15;;;70.50;;
16147;SDS011;8179;59.364;18.018;2022-10-16T09:19:31;73.93;;;71.03;;
16147;SDS011;8179;59.364;18.018;2022-10-16T09:22:00;72.82;;;70.03;;
16147;SDS011;8179;59.364;18.018;2022-10-16T09:24:29;89.55;;;86.38;;
16147;SDS011;8179;59.364;18.018;2022-10-16T09:26:56;128.75;;;124.53;;
16147;SDS011;8179;59.364;18.018;2022-10-16T09:29:22;87.00;;;84.00;;
16147;SDS011;8179;59.364;18.018;2022-10-16T09:31:50;81.95;;;78.90;;
16147;SDS011;8179;59.364;18.018;2022-10-16T09:34:17;102.88;;;99.20;;
16147;SDS011;8179;59.364;18.018;2022-10-16T09:36:47;103.63;;;100.00;;
16147;SDS011;8179;59.364;18.018;2022-10-16T09:39:15;65.03;;;62.45;;
16147;SDS011;8179;59.364;18.018;2022-10-16T09:41:41;86.78;;;83.38;;
16147;SDS011;8179;59.364;18.018;2022-10-16T09:44:16;97.03;;;93.68;;
16147;SDS011;8179;59.364;18.018;2022-10-16T09:46:44;73.05;;;70.43;;
16147;SDS011;8179;59.364;18.018;2022-10-16T09:49:18;94.75;;;91.60;;
16147;SDS011;8179;59.364;18.018;2022-10-16T09:51:46;155.85;;;150.80;;
16147;SDS011;8179;59.364;18.018;2022-10-16T09:54:15;89.22;;;85.90;;
16147;SDS011;8179;59.364;18.018;2022-10-16T09:56:42;101.57;;;98.07;;
16147;SDS011;8179;59.364;18.018;2022-10-16T09:59:11;97.55;;;94.20;;
16147;SDS011;8179;59.364;18.018;2022-10-16T10:01:38;76.78;;;73.65;;
16147;SDS011;8179;59.364;18.018;2022-10-16T10:04:05;91.35;;;88.05;;
16147;SDS011;8179;59.364;18.018;2022-10-16T10:06:33;76.18;;;73.13;;
16147;SDS011;8179;59.364;18.018;2022-10-16T10:09:04;86.10;;;83.00;;
16147;SDS011;8179;59.364;18.018;2022-10-16T10:11:40;73.15;;;70.65;;
16147;SDS011;8179;59.364;18.018;2022-10-16T10:14:09;96.50;;;92.88;;
16147;SDS011;8179;59.364;18.018;2022-10-16T10:16:39;87.80;;;84.68;;
16147;SDS011;8179;59.364;18.018;2022-10-16T10:19:09;82.85;;;79.78;;
16147;SDS011;8179;59.364;18.018;2022-10-16T10:21:39;67.90;;;65.15;;
16147;SDS011;8179;59.364;18.018;2022-10-16T10:24:09;75.90;;;72.95;;
16147;SDS011;8179;59.364;18.018;2022-10-16T10:26:35;92.88;;;89.43;;
16147;SDS011;8179;59.364;18.018;2022-10-16T10:29:04;49.30;;;47.35;;
16147;SDS011;8179;59.364;18.018;2022-10-16T10:31:34;86.88;;;83.55;;
16147;SDS011;8179;59.364;18.018;2022-10-16T10:34:07;85.38;;;82.10;;
16147;SDS011;8179;59.364;18.018;2022-10-16T10:36:40;61.92;;;59.13;;
16147;SDS011;8179;59.364;18.018;2022-10-16T10:39:08;70.43;;;67.88;;
16147;SDS011;8179;59.364;18.018;2022-10-16T10:44:23;66.80;;;64.20;;
16147;SDS011;8179;59.364;18.018;2022-10-16T10:46:53;70.03;;;67.43;;
16147;SDS011;8179;59.364;18.018;2022-10-16T10:49:26;67.72;;;65.28;;
16147;SDS011;8179;59.364;18.018;2022-10-16T10:51:58;49.10;;;47.25;;
16147;SDS011;8179;59.364;18.018;2022-10-16T10:54:29;47.53;;;45.63;;
16147;SDS011;8179;59.364;18.018;2022-10-16T10:57:00;89.35;;;85.47;;
16147;SDS011;8179;59.364;18.018;2022-10-16T10:59:32;79.53;;;76.38;;
16147;SDS011;8179;59.364;18.018;2022-10-16T11:02:04;59.17;;;56.75;;
16147;SDS011;8179;59.364;18.018;2022-10-16T11:04:41;77.53;;;74.90;;
16147;SDS011;8179;59.364;18.018;2022-10-16T11:07:11;81.72;;;78.85;;
16147;SDS011;8179;59.364;18.018;2022-10-16T11:09:41;72.00;;;69.30;;
16147;SDS011;8179;59.364;18.018;2022-10-16T11:12:11;58.58;;;56.22;;
16147;SDS011;8179;59.364;18.018;2022-10-16T11:14:42;56.22;;;53.65;;
16147;SDS011;8179;59.364;18.018;2022-10-16T11:17:10;53.05;;;50.97;;
16147;SDS011;8179;59.364;18.018;2022-10-16T11:19:39;66.05;;;63.47;;
16147;SDS011;8179;59.364;18.018;2022-10-16T11:22:09;61.42;;;58.67;;
16147;SDS011;8179;59.364;18.018;2022-10-16T11:24:41;55.83;;;53.85;;
16147;SDS011;8179;59.364;18.018;2022-10-16T11:27:09;55.10;;;52.38;;
16147;SDS011;8179;59.364;18.018;2022-10-16T11:29:42;41.60;;;39.83;;
16147;SDS011;8179;59.364;18.018;2022-10-16T11:32:12;45.80;;;44.13;;
16147;SDS011;8179;59.364;18.018;2022-10-16T11:34:43;38.25;;;36.40;;
16147;SDS011;8179;59.364;18.018;2022-10-16T11:37:12;75.97;;;72.85;;
16147;SDS011;8179;59.364;18.018;2022-10-16T11:39:40;45.70;;;43.42;;
16147;SDS011;8179;59.364;18.018;2022-10-16T11:42:09;35.60;;;34.00;;
16147;SDS011;8179;59.364;18.018;2022-10-16T11:44:41;43.78;;;42.08;;
16147;SDS011;8179;59.364;18.018;2022-10-16T11:47:11;50.95;;;48.80;;
16147;SDS011;8179;59.364;18.018;2022-10-16T11:49:39;51.05;;;49.10;;
16147;SDS011;8179;59.364;18.018;2022-10-16T11:52:07;47.67;;;45.88;;
16147;SDS011;8179;59.364;18.018;2022-10-16T11:54:39;56.50;;;54.53;;
16147;SDS011;8179;59.364;18.018;2022-10-16T11:57:08;56.13;;;53.13;;
16147;SDS011;8179;59.364;18.018;2022-10-16T11:59:38;55.50;;;53.50;;
16147;SDS011;8179;59.364;18.018;2022-10-16T12:02:20;55.58;;;53.35;;
16147;SDS011;8179;59.364;18.018;2022-10-16T12:04:53;53.35;;;50.60;;
16147;SDS011;8179;59.364;18.018;2022-10-16T12:07:27;44.30;;;42.30;;
16147;SDS011;8179;59.364;18.018;2022-10-16T12:09:58;50.40;;;48.53;;
16147;SDS011;8179;59.364;18.018;2022-10-16T12:12:37;51.08;;;48.70;;
16147;SDS011;8179;59.364;18.018;2022-10-16T12:15:18;50.67;;;48.17;;
16147;SDS011;8179;59.364;18.018;2022-10-16T12:17:46;54.47;;;52.33;;
16147;SDS011;8179;59.364;18.018;2022-10-16T12:20:20;45.60;;;43.53;;
16147;SDS011;8179;59.364;18.018;2022-10-16T12:22:47;56.05;;;53.63;;
16147;SDS011;8179;59.364;18.018;2022-10-16T12:25:19;59.70;;;57.40;;
16147;SDS011;8179;59.364;18.018;2022-10-16T12:27:53;51.70;;;49.53;;
16147;SDS011;8179;59.364;18.018;2022-10-16T12:30:20;52.17;;;50.13;;
16147;SDS011;8179;59.364;18.018;2022-10-16T12:32:54;55.17;;;52.78;;
16147;SDS011;8179;59.364;18.018;2022-10-16T12:35:21;70.90;;;67.85;;
16147;SDS011;8179;59.364;18.018;2022-10-16T12:37:49;59.53;;;57.13;;
16147;SDS011;8179;59.364;18.018;2022-10-16T12:40:22;62.88;;;60.33;;
16147;SDS011;8179;59.364;18.018;2022-10-16T12:42:49;52.47;;;49.95;;
16147;SDS011;8179;59.364;18.018;2022-10-16T12:45:26;63.50;;;60.03;;
16147;SDS011;8179;59.364;18.018;2022-10-16T12:47:55;58.50;;;56.20;;
16147;SDS011;8179;59.364;18.018;2022-10-16T12:50:26;47.38;;;45.15;;
16147;SDS011;8179;59.364;18.018;2022-10-16T12:52:52;52.30;;;49.97;;
16147;SDS011;8179;59.364;18.018;2022-10-16T12:55:20;53.95;;;51.45;;
16147;SDS011;8179;59.364;18.018;2022-10-16T12:57:51;62.28;;;59.88;;
16147;SDS011;8179;59.364;18.018;2022-10-16T13:00:23;60.08;;;57.78;;
16147;SDS011;8179;59.364;18.018;2022-10-16T13:02:56;49.25;;;46.85;;
16147;SDS011;8179;59.364;18.018;2022-10-16T13:05:32;60.05;;;57.78;;
16147;SDS011;8179;59.364;18.018;2022-10-16T13:08:02;73.93;;;71.45;;
16147;SDS011;8179;59.364;18.018;2022-10-16T13:10:33;62.67;;;60.13;;
16147;SDS011;8179;59.364;18.018;2022-10-16T13:13:05;60.13;;;57.95;;
16147;SDS011;8179;59.364;18.018;2022-10-16T13:15:47;65.13;;;62.80;;
16147;SDS011;8179;59.364;18.018;2022-10-16T13:18:19;56.40;;;54.38;;
16147;SDS011;8179;59.364;18.018;2022-10-16T13:20:54;62.80;;;60.28;;
16147;SDS011;8179;59.364;18.018;2022-10-16T13:23:23;55.05;;;53.17;;
16147;SDS011;8179;59.364;18.018;2022-10-16T13:25:56;86.55;;;83.55;;
16147;SDS011;8179;59.364;18.018;2022-10-16T13:28:27;56.85;;;54.60;;
16147;SDS011;8179;59.364;18.018;2022-10-16T13:30:55;65.28;;;62.97;;
16147;SDS011;8179;59.364;18.018;2022-10-16T13:33:27;60.78;;;58.58;;
16147;SDS011;8179;59.364;18.018;2022-10-16T13:35:56;63.38;;;61.05;;
16147;SDS011;8179;59.364;18.018;2022-10-16T13:38:24;85.32;;;82.30;;
16147;SDS011;8179;59.364;18.018;2022-10-16T13:40:51;68.03;;;65.57;;
16147;SDS011;8179;59.364;18.018;2022-10-16T13:43:18;58.30;;;55.92;;
16147;SDS011;8179;59.364;18.018;2022-10-16T13:45:52;56.03;;;53.58;;
16147;SDS011;8179;59.364;18.018;2022-10-16T13:48:19;59.08;;;56.80;;
16147;SDS011;8179;59.364;18.018;2022-10-16T13:50:46;48.63;;;46.20;;
16147;SDS011;8179;59.364;18.018;2022-10-16T13:53:23;61.78;;;59.35;;
16147;SDS011;8179;59.364;18.018;2022-10-16T13:55:50;75.50;;;72.45;;
16147;SDS011;8179;59.364;18.018;2022-10-16T13:58:16;91.97;;;88.75;;
16147;SDS011;8179;59.364;18.018;2022-10-16T14:00:52;72.57;;;70.03;;
16147;SDS011;8179;59.364;18.018;2022-10-16T14:03:19;61.75;;;59.40;;
16147;SDS011;8179;59.364;18.018;2022-10-16T14:05:48;112.40;;;108.20;;
16147;SDS011;8179;59.364;18.018;2022-10-16T14:08:15;58.47;;;56.47;;
16147;SDS011;8179;59.364;18.018;2022-10-16T14:10:42;135.93;;;131.23;;
16147;SDS011;8179;59.364;18.018;2022-10-16T14:13:12;54.03;;;51.70;;
16147;SDS011;8179;59.364;18.018;2022-10-16T14:15:45;92.60;;;89.60;;
16147;SDS011;8179;59.364;18.018;2022-10-16T14:18:14;70.68;;;68.13;;
16147;SDS011;8179;59.364;18.018;2022-10-16T14:20:42;90.57;;;87.38;;
16147;SDS011;8179;59.364;18.018;2022-10-16T14:23:19;97.15;;;94.05;;
16147;SDS011;8179;59.364;18.018;2022-10-16T14:25:46;56.95;;;54.33;;
16147;SDS011;8179;59.364;18.018;2022-10-16T14:28:15;56.38;;;54.08;;
16147;SDS011;8179;59.364;18.018;2022-10-16T14:30:49;72.60;;;70.07;;
16147;SDS011;8179;59.364;18.018;2022-10-16T14:33:23;44.90;;;42.90;;
16147;SDS011;8179;59.364;18.018;2022-10-16T14:36:00;50.90;;;49.10;;